sensor_id;sensor_type;location;lat;lon;timestamp;P1;durP1;ratioP1;P2;durP2;ratioP2
19235;SDS011;9752;54.270;12.470;2023-06-26T00:01:45;14.13;;;12.63;;
19235;SDS011;9752;54.270;12.470;2023-06-26T00:06:48;13.07;;;11.87;;
19235;SDS011;9752;54.270;12.470;2023-06-26T00:11:50;15.80;;;12.37;;
19235;SDS011;9752;54.270;12.470;2023-06-26T00:16:52;14.90;;;13.40;;
19235;SDS011;9752;54.270;12.470;2023-06-26T00:21:55;14.27;;;12.97;;
19235;SDS011;9752;54.270;12.470;2023-06-26T00:26:57;14.07;;;12.67;;
19235;SDS011;9752;54.270;12.470;2023-06-26T00:31:59;14.43;;;13.13;;
19235;SDS011;9752;54.270;12.470;2023-06-26T00:37:02;14.47;;;12.97;;
19235;SDS011;9752;54.270;12.470;2023-06-26T00:42:05;13.33;;;12.13;;
19235;SDS011;9752;54.270;12.470;2023-06-26T00:47:07;14.30;;;12.90;;
19235;SDS011;9752;54.270;12.470;2023-06-26T00:52:12;14.43;;;12.90;;
19235;SDS011;9752;54.270;12.470;2023-06-26T00:57:14;13.43;;;12.30;;
19235;SDS011;9752;54.270;12.470;2023-06-26T01:02:16;15.77;;;13.43;;
19235;SDS011;9752;54.270;12.470;2023-06-26T01:07:21;12.90;;;11.80;;
19235;SDS011;9752;54.270;12.470;2023-06-26T01:12:24;14.00;;;12.77;;
19235;SDS011;9752;54.270;12.470;2023-06-26T01:17:26;14.30;;;13.00;;
19235;SDS011;9752;54.270;12.470;2023-06-26T01:22:34;13.33;;;12.07;;
19235;SDS011;9752;54.270;12.470;2023-06-26T01:27:48;14.53;;;13.13;;
19235;SDS011;9752;54.270;12.470;2023-06-26T01:32:51;13.83;;;12.47;;
19235;SDS011;9752;54.270;12.470;2023-06-26T01:38:10;15.07;;;13.67;;
19235;SDS011;9752;54.270;12.470;2023-06-26T01:43:18;12.77;;;11.67;;
19235;SDS011;9752;54.270;12.470;2023-06-26T01:48:27;14.13;;;12.57;;
19235;SDS011;9752;54.270;12.470;2023-06-26T01:53:34;14.47;;;12.97;;
19235;SDS011;9752;54.270;12.470;2023-06-26T01:58:43;13.83;;;12.43;;
19235;SDS011;9752;54.270;12.470;2023-06-26T02:03:46;14.07;;;12.67;;
19235;SDS011;9752;54.270;12.470;2023-06-26T02:08:48;13.30;;;12.17;;
19235;SDS011;9752;54.270;12.470;2023-06-26T02:13:51;13.70;;;12.40;;
19235;SDS011;9752;54.270;12.470;2023-06-26T02:18:53;14.57;;;13.17;;
19235;SDS011;9752;54.270;12.470;2023-06-26T02:23:57;15.80;;;14.20;;
19235;SDS011;9752;54.270;12.470;2023-06-26T02:29:00;14.63;;;13.13;;
19235;SDS011;9752;54.270;12.470;2023-06-26T02:34:03;13.73;;;12.43;;
19235;SDS011;9752;54.270;12.470;2023-06-26T02:39:07;13.33;;;12.07;;
19235;SDS011;9752;54.270;12.470;2023-06-26T02:44:11;14.80;;;13.30;;
19235;SDS011;9752;54.270;12.470;2023-06-26T02:49:14;13.43;;;11.27;;
19235;SDS011;9752;54.270;12.470;2023-06-26T02:54:16;12.53;;;11.33;;
19235;SDS011;9752;54.270;12.470;2023-06-26T02:59:25;12.30;;;11.17;;
19235;SDS011;9752;54.270;12.470;2023-06-26T03:04:28;12.13;;;11.03;;
19235;SDS011;9752;54.270;12.470;2023-06-26T03:09:30;14.77;;;12.03;;
19235;SDS011;9752;54.270;12.470;2023-06-26T03:14:34;14.27;;;12.53;;
19235;SDS011;9752;54.270;12.470;2023-06-26T03:19:35;13.67;;;12.30;;
19235;SDS011;9752;54.270;12.470;2023-06-26T03:25:07;14.00;;;12.60;;
19235;SDS011;9752;54.270;12.470;2023-06-26T03:30:11;13.23;;;11.93;;
19235;SDS011;9752;54.270;12.470;2023-06-26T03:35:15;12.70;;;11.50;;
19235;SDS011;9752;54.270;12.470;2023-06-26T03:40:17;12.47;;;11.30;;
19235;SDS011;9752;54.270;12.470;2023-06-26T03:45:20;16.27;;;12.37;;
19235;SDS011;9752;54.270;12.470;2023-06-26T03:50:23;13.60;;;12.40;;
19235;SDS011;9752;54.270;12.470;2023-06-26T03:55:25;14.73;;;12.63;;
19235;SDS011;9752;54.270;12.470;2023-06-26T04:00:28;12.80;;;11.70;;
19235;SDS011;9752;54.270;12.470;2023-06-26T04:05:29;12.07;;;10.97;;
19235;SDS011;9752;54.270;12.470;2023-06-26T04:10:31;13.83;;;11.87;;
19235;SDS011;9752;54.270;12.470;2023-06-26T04:15:34;11.63;;;10.50;;
19235;SDS011;9752;54.270;12.470;2023-06-26T04:20:38;14.97;;;12.07;;
19235;SDS011;9752;54.270;12.470;2023-06-26T04:25:40;12.83;;;11.63;;
19235;SDS011;9752;54.270;12.470;2023-06-26T04:30:43;12.53;;;11.43;;
19235;SDS011;9752;54.270;12.470;2023-06-26T04:35:45;12.27;;;11.13;;
19235;SDS011;9752;54.270;12.470;2023-06-26T04:40:48;12.20;;;11.10;;
19235;SDS011;9752;54.270;12.470;2023-06-26T04:45:52;11.60;;;10.60;;
19235;SDS011;9752;54.270;12.470;2023-06-26T04:50:53;12.73;;;11.53;;
19235;SDS011;9752;54.270;12.470;2023-06-26T04:55:56;12.17;;;11.27;;
19235;SDS011;9752;54.270;12.470;2023-06-26T05:00:59;12.57;;;11.37;;
19235;SDS011;9752;54.270;12.470;2023-06-26T05:06:00;12.67;;;10.90;;
19235;SDS011;9752;54.270;12.470;2023-06-26T05:11:02;12.03;;;10.80;;
19235;SDS011;9752;54.270;12.470;2023-06-26T05:16:05;12.77;;;11.67;;
19235;SDS011;9752;54.270;12.470;2023-06-26T05:21:09;14.77;;;12.80;;
19235;SDS011;9752;54.270;12.470;2023-06-26T05:26:11;12.60;;;11.40;;
19235;SDS011;9752;54.270;12.470;2023-06-26T05:31:15;13.03;;;11.77;;
19235;SDS011;9752;54.270;12.470;2023-06-26T05:36:17;14.80;;;11.97;;
19235;SDS011;9752;54.270;12.470;2023-06-26T05:41:20;13.63;;;12.50;;
19235;SDS011;9752;54.270;12.470;2023-06-26T05:46:23;15.00;;;13.70;;
19235;SDS011;9752;54.270;12.470;2023-06-26T05:51:25;15.23;;;13.80;;
19235;SDS011;9752;54.270;12.470;2023-06-26T05:56:27;14.23;;;13.13;;
19235;SDS011;9752;54.270;12.470;2023-06-26T06:01:31;14.20;;;13.10;;
19235;SDS011;9752;54.270;12.470;2023-06-26T06:06:33;15.10;;;13.90;;
19235;SDS011;9752;54.270;12.470;2023-06-26T06:11:35;16.23;;;15.00;;
19235;SDS011;9752;54.270;12.470;2023-06-26T06:16:38;15.50;;;14.30;;
19235;SDS011;9752;54.270;12.470;2023-06-26T06:21:40;16.10;;;14.60;;
19235;SDS011;9752;54.270;12.470;2023-06-26T06:26:43;15.80;;;14.40;;
19235;SDS011;9752;54.270;12.470;2023-06-26T06:31:46;15.77;;;14.67;;
19235;SDS011;9752;54.270;12.470;2023-06-26T06:36:48;15.90;;;14.80;;
19235;SDS011;9752;54.270;12.470;2023-06-26T06:41:51;16.27;;;15.27;;
19235;SDS011;9752;54.270;12.470;2023-06-26T06:46:54;16.40;;;15.30;;
19235;SDS011;9752;54.270;12.470;2023-06-26T06:51:55;18.77;;;17.37;;
19235;SDS011;9752;54.270;12.470;2023-06-26T06:56:57;18.20;;;17.00;;
19235;SDS011;9752;54.270;12.470;2023-06-26T07:02:00;20.83;;;19.03;;
19235;SDS011;9752;54.270;12.470;2023-06-26T07:07:02;19.13;;;17.73;;
19235;SDS011;9752;54.270;12.470;2023-06-26T07:12:04;20.33;;;18.83;;
19235;SDS011;9752;54.270;12.470;2023-06-26T07:17:07;20.93;;;19.53;;
19235;SDS011;9752;54.270;12.470;2023-06-26T07:22:09;22.00;;;20.60;;
19235;SDS011;9752;54.270;12.470;2023-06-26T07:27:11;22.03;;;20.63;;
19235;SDS011;9752;54.270;12.470;2023-06-26T07:32:14;22.57;;;21.03;;
19235;SDS011;9752;54.270;12.470;2023-06-26T07:37:16;22.50;;;20.60;;
19235;SDS011;9752;54.270;12.470;2023-06-26T07:42:17;22.03;;;20.23;;
19235;SDS011;9752;54.270;12.470;2023-06-26T07:47:20;21.70;;;20.17;;
19235;SDS011;9752;54.270;12.470;2023-06-26T07:52:22;22.17;;;20.87;;
19235;SDS011;9752;54.270;12.470;2023-06-26T07:57:24;20.77;;;19.47;;
19235;SDS011;9752;54.270;12.470;2023-06-26T08:02:27;20.97;;;19.63;;
19235;SDS011;9752;54.270;12.470;2023-06-26T08:07:29;19.63;;;18.53;;
19235;SDS011;9752;54.270;12.470;2023-06-26T08:12:30;20.20;;;18.70;;
19235;SDS011;9752;54.270;12.470;2023-06-26T08:17:34;20.13;;;18.93;;
19235;SDS011;9752;54.270;12.470;2023-06-26T08:22:36;20.40;;;19.23;;
19235;SDS011;9752;54.270;12.470;2023-06-26T08:27:37;21.47;;;20.07;;
19235;SDS011;9752;54.270;12.470;2023-06-26T08:32:40;19.92;;;18.77;;
19235;SDS011;9752;54.270;12.470;2023-06-26T08:37:42;19.05;;;17.88;;
19235;SDS011;9752;54.270;12.470;2023-06-26T08:42:44;19.67;;;18.48;;
19235;SDS011;9752;54.270;12.470;2023-06-26T08:47:47;19.10;;;18.08;;
19235;SDS011;9752;54.270;12.470;2023-06-26T08:52:53;19.27;;;18.15;;
19235;SDS011;9752;54.270;12.470;2023-06-26T08:57:58;20.00;;;18.67;;
19235;SDS011;9752;54.270;12.470;2023-06-26T09:03:03;20.02;;;18.90;;
19235;SDS011;9752;54.270;12.470;2023-06-26T09:08:06;21.05;;;19.52;;
19235;SDS011;9752;54.270;12.470;2023-06-26T09:13:08;21.52;;;19.58;;
19235;SDS011;9752;54.270;12.470;2023-06-26T09:18:11;21.05;;;19.65;;
19235;SDS011;9752;54.270;12.470;2023-06-26T09:23:13;19.73;;;18.63;;
19235;SDS011;9752;54.270;12.470;2023-06-26T09:28:15;19.63;;;18.30;;
19235;SDS011;9752;54.270;12.470;2023-06-26T09:33:18;19.27;;;18.27;;
19235;SDS011;9752;54.270;12.470;2023-06-26T09:38:21;19.88;;;18.40;;
19235;SDS011;9752;54.270;12.470;2023-06-26T09:43:23;18.88;;;17.88;;
19235;SDS011;9752;54.270;12.470;2023-06-26T09:48:27;21.08;;;19.83;;
19235;SDS011;9752;54.270;12.470;2023-06-26T09:53:29;18.65;;;17.45;;
19235;SDS011;9752;54.270;12.470;2023-06-26T09:58:32;18.52;;;17.42;;
19235;SDS011;9752;54.270;12.470;2023-06-26T10:03:36;18.98;;;17.95;;
19235;SDS011;9752;54.270;12.470;2023-06-26T10:08:37;19.38;;;18.35;;
19235;SDS011;9752;54.270;12.470;2023-06-26T10:13:42;18.88;;;17.75;;
19235;SDS011;9752;54.270;12.470;2023-06-26T10:18:47;19.05;;;18.15;;
19235;SDS011;9752;54.270;12.470;2023-06-26T10:23:54;18.75;;;17.55;;
19235;SDS011;9752;54.270;12.470;2023-06-26T10:28:58;19.65;;;18.65;;
19235;SDS011;9752;54.270;12.470;2023-06-26T10:34:02;19.42;;;18.08;;
19235;SDS011;9752;54.270;12.470;2023-06-26T10:39:04;19.02;;;17.73;;
19235;SDS011;9752;54.270;12.470;2023-06-26T10:44:08;20.15;;;18.95;;
19235;SDS011;9752;54.270;12.470;2023-06-26T10:49:12;19.75;;;18.75;;
19235;SDS011;9752;54.270;12.470;2023-06-26T10:54:14;19.35;;;18.35;;
19235;SDS011;9752;54.270;12.470;2023-06-26T10:59:17;19.95;;;18.85;;
19235;SDS011;9752;54.270;12.470;2023-06-26T11:04:35;20.17;;;18.90;;
19235;SDS011;9752;54.270;12.470;2023-06-26T11:09:38;21.33;;;19.83;;
19235;SDS011;9752;54.270;12.470;2023-06-26T11:14:55;21.10;;;20.05;;
19235;SDS011;9752;54.270;12.470;2023-06-26T11:19:58;19.83;;;18.83;;
19235;SDS011;9752;54.270;12.470;2023-06-26T11:25:00;20.42;;;19.42;;
19235;SDS011;9752;54.270;12.470;2023-06-26T11:30:03;20.10;;;19.00;;
19235;SDS011;9752;54.270;12.470;2023-06-26T11:35:07;20.75;;;19.65;;
19235;SDS011;9752;54.270;12.470;2023-06-26T11:40:16;20.17;;;18.90;;
19235;SDS011;9752;54.270;12.470;2023-06-26T11:45:19;20.80;;;19.52;;
19235;SDS011;9752;54.270;12.470;2023-06-26T11:50:22;19.80;;;18.80;;
19235;SDS011;9752;54.270;12.470;2023-06-26T11:55:24;20.30;;;19.17;;
19235;SDS011;9752;54.270;12.470;2023-06-26T12:00:27;21.33;;;20.23;;
19235;SDS011;9752;54.270;12.470;2023-06-26T12:05:30;21.58;;;20.23;;
19235;SDS011;9752;54.270;12.470;2023-06-26T12:10:32;19.65;;;18.45;;
19235;SDS011;9752;54.270;12.470;2023-06-26T12:15:34;20.33;;;19.30;;
19235;SDS011;9752;54.270;12.470;2023-06-26T12:20:40;20.30;;;19.05;;
19235;SDS011;9752;54.270;12.470;2023-06-26T12:25:42;20.33;;;19.23;;
19235;SDS011;9752;54.270;12.470;2023-06-26T12:30:45;27.40;;;24.75;;
19235;SDS011;9752;54.270;12.470;2023-06-26T12:35:50;34.30;;;27.47;;
19235;SDS011;9752;54.270;12.470;2023-06-26T12:40:52;45.23;;;37.87;;
19235;SDS011;9752;54.270;12.470;2023-06-26T12:45:57;48.87;;;37.90;;
19235;SDS011;9752;54.270;12.470;2023-06-26T12:51:00;57.17;;;41.83;;
19235;SDS011;9752;54.270;12.470;2023-06-26T12:56:09;54.60;;;41.67;;
19235;SDS011;9752;54.270;12.470;2023-06-26T13:01:11;51.57;;;42.50;;
19235;SDS011;9752;54.270;12.470;2023-06-26T13:06:16;52.47;;;40.50;;
19235;SDS011;9752;54.270;12.470;2023-06-26T13:11:18;44.43;;;37.57;;
19235;SDS011;9752;54.270;12.470;2023-06-26T13:16:19;51.27;;;37.67;;
19235;SDS011;9752;54.270;12.470;2023-06-26T13:21:22;44.83;;;33.40;;
19235;SDS011;9752;54.270;12.470;2023-06-26T13:26:24;42.30;;;33.07;;
19235;SDS011;9752;54.270;12.470;2023-06-26T13:31:28;36.57;;;32.40;;
19235;SDS011;9752;54.270;12.470;2023-06-26T13:36:32;37.30;;;31.53;;
19235;SDS011;9752;54.270;12.470;2023-06-26T13:41:35;36.60;;;31.63;;
19235;SDS011;9752;54.270;12.470;2023-06-26T13:46:36;30.27;;;27.63;;
19235;SDS011;9752;54.270;12.470;2023-06-26T13:51:39;27.27;;;24.97;;
19235;SDS011;9752;54.270;12.470;2023-06-26T13:56:45;24.97;;;22.93;;
19235;SDS011;9752;54.270;12.470;2023-06-26T14:01:47;26.20;;;23.80;;
19235;SDS011;9752;54.270;12.470;2023-06-26T14:06:51;26.57;;;24.40;;
19235;SDS011;9752;54.270;12.470;2023-06-26T14:11:54;28.93;;;26.40;;
19235;SDS011;9752;54.270;12.470;2023-06-26T14:16:55;27.67;;;25.00;;
19235;SDS011;9752;54.270;12.470;2023-06-26T14:22:00;27.30;;;24.47;;
19235;SDS011;9752;54.270;12.470;2023-06-26T14:27:02;27.63;;;25.00;;
19235;SDS011;9752;54.270;12.470;2023-06-26T14:32:05;26.13;;;23.67;;
19235;SDS011;9752;54.270;12.470;2023-06-26T14:37:08;22.03;;;20.23;;
19235;SDS011;9752;54.270;12.470;2023-06-26T14:42:10;21.77;;;20.07;;
19235;SDS011;9752;54.270;12.470;2023-06-26T14:47:12;20.73;;;18.83;;
19235;SDS011;9752;54.270;12.470;2023-06-26T14:52:15;19.83;;;17.90;;
19235;SDS011;9752;54.270;12.470;2023-06-26T14:57:17;18.83;;;17.17;;
19235;SDS011;9752;54.270;12.470;2023-06-26T15:02:19;19.43;;;17.37;;
19235;SDS011;9752;54.270;12.470;2023-06-26T15:07:22;18.43;;;16.00;;
19235;SDS011;9752;54.270;12.470;2023-06-26T15:12:23;21.03;;;15.33;;
19235;SDS011;9752;54.270;12.470;2023-06-26T15:17:25;20.03;;;15.10;;
19235;SDS011;9752;54.270;12.470;2023-06-26T15:22:28;15.70;;;12.43;;
19235;SDS011;9752;54.270;12.470;2023-06-26T15:27:30;14.87;;;12.97;;
19235;SDS011;9752;54.270;12.470;2023-06-26T15:32:31;14.67;;;13.40;;
19235;SDS011;9752;54.270;12.470;2023-06-26T15:37:34;17.80;;;16.23;;
19235;SDS011;9752;54.270;12.470;2023-06-26T15:42:44;18.17;;;16.97;;
19235;SDS011;9752;54.270;12.470;2023-06-26T15:47:46;17.50;;;16.00;;
19235;SDS011;9752;54.270;12.470;2023-06-26T15:52:49;18.60;;;17.20;;
19235;SDS011;9752;54.270;12.470;2023-06-26T15:57:51;19.70;;;17.90;;
19235;SDS011;9752;54.270;12.470;2023-06-26T16:02:52;19.87;;;18.27;;
19235;SDS011;9752;54.270;12.470;2023-06-26T16:07:55;18.03;;;16.37;;
19235;SDS011;9752;54.270;12.470;2023-06-26T16:12:57;16.10;;;14.93;;
19235;SDS011;9752;54.270;12.470;2023-06-26T16:17:58;17.03;;;15.47;;
19235;SDS011;9752;54.270;12.470;2023-06-26T16:23:01;16.03;;;14.47;;
19235;SDS011;9752;54.270;12.470;2023-06-26T16:28:03;17.17;;;15.60;;
19235;SDS011;9752;54.270;12.470;2023-06-26T16:33:05;17.60;;;15.90;;
19235;SDS011;9752;54.270;12.470;2023-06-26T16:38:09;18.47;;;16.97;;
19235;SDS011;9752;54.270;12.470;2023-06-26T16:43:10;18.10;;;16.73;;
19235;SDS011;9752;54.270;12.470;2023-06-26T16:48:12;17.90;;;16.60;;
19235;SDS011;9752;54.270;12.470;2023-06-26T16:53:15;17.90;;;16.60;;
19235;SDS011;9752;54.270;12.470;2023-06-26T16:58:17;17.40;;;16.30;;
19235;SDS011;9752;54.270;12.470;2023-06-26T17:03:20;17.43;;;16.30;;
19235;SDS011;9752;54.270;12.470;2023-06-26T17:08:23;17.83;;;16.50;;
19235;SDS011;9752;54.270;12.470;2023-06-26T17:13:25;16.70;;;15.70;;
19235;SDS011;9752;54.270;12.470;2023-06-26T17:18:27;16.83;;;15.73;;
19235;SDS011;9752;54.270;12.470;2023-06-26T17:23:30;16.70;;;15.70;;
19235;SDS011;9752;54.270;12.470;2023-06-26T17:28:32;16.83;;;15.93;;
19235;SDS011;9752;54.270;12.470;2023-06-26T17:33:33;16.80;;;15.87;;
19235;SDS011;9752;54.270;12.470;2023-06-26T17:38:36;17.60;;;16.43;;
19235;SDS011;9752;54.270;12.470;2023-06-26T17:43:39;17.93;;;16.90;;
19235;SDS011;9752;54.270;12.470;2023-06-26T17:48:41;17.40;;;16.27;;
19235;SDS011;9752;54.270;12.470;2023-06-26T17:53:44;18.57;;;16.43;;
19235;SDS011;9752;54.270;12.470;2023-06-26T17:58:50;16.90;;;15.97;;
19235;SDS011;9752;54.270;12.470;2023-06-26T18:03:52;17.30;;;16.20;;
19235;SDS011;9752;54.270;12.470;2023-06-26T18:08:55;16.10;;;15.10;;
19235;SDS011;9752;54.270;12.470;2023-06-26T18:13:57;16.20;;;14.93;;
19235;SDS011;9752;54.270;12.470;2023-06-26T18:19:00;14.97;;;13.97;;
19235;SDS011;9752;54.270;12.470;2023-06-26T18:24:04;13.73;;;12.70;;
19235;SDS011;9752;54.270;12.470;2023-06-26T18:29:06;14.03;;;13.00;;
19235;SDS011;9752;54.270;12.470;2023-06-26T18:34:08;12.87;;;11.67;;
19235;SDS011;9752;54.270;12.470;2023-06-26T18:39:11;11.77;;;10.77;;
19235;SDS011;9752;54.270;12.470;2023-06-26T18:44:13;13.30;;;12.03;;
19235;SDS011;9752;54.270;12.470;2023-06-26T18:49:15;12.17;;;11.30;;
19235;SDS011;9752;54.270;12.470;2023-06-26T18:54:18;13.40;;;12.07;;
19235;SDS011;9752;54.270;12.470;2023-06-26T18:59:20;12.83;;;11.87;;
19235;SDS011;9752;54.270;12.470;2023-06-26T19:04:23;13.13;;;11.77;;
19235;SDS011;9752;54.270;12.470;2023-06-26T19:09:27;12.43;;;11.57;;
19235;SDS011;9752;54.270;12.470;2023-06-26T19:14:31;12.97;;;11.93;;
19235;SDS011;9752;54.270;12.470;2023-06-26T19:19:33;12.10;;;11.17;;
19235;SDS011;9752;54.270;12.470;2023-06-26T19:24:36;12.33;;;11.30;;
19235;SDS011;9752;54.270;12.470;2023-06-26T19:29:38;10.53;;;9.50;;
19235;SDS011;9752;54.270;12.470;2023-06-26T19:34:39;11.23;;;10.13;;
19235;SDS011;9752;54.270;12.470;2023-06-26T19:39:43;12.47;;;10.60;;
19235;SDS011;9752;54.270;12.470;2023-06-26T19:44:44;15.60;;;10.67;;
19235;SDS011;9752;54.270;12.470;2023-06-26T19:49:46;13.10;;;11.70;;
19235;SDS011;9752;54.270;12.470;2023-06-26T19:54:49;14.97;;;11.17;;
19235;SDS011;9752;54.270;12.470;2023-06-26T19:59:51;13.80;;;12.27;;
19235;SDS011;9752;54.270;12.470;2023-06-26T20:04:53;11.93;;;10.93;;
19235;SDS011;9752;54.270;12.470;2023-06-26T20:09:56;13.60;;;11.53;;
19235;SDS011;9752;54.270;12.470;2023-06-26T20:14:57;11.47;;;9.80;;
19235;SDS011;9752;54.270;12.470;2023-06-26T20:19:59;12.93;;;10.67;;
19235;SDS011;9752;54.270;12.470;2023-06-26T20:25:02;16.63;;;10.63;;
19235;SDS011;9752;54.270;12.470;2023-06-26T20:30:05;14.20;;;12.27;;
19235;SDS011;9752;54.270;12.470;2023-06-26T20:35:08;13.80;;;12.47;;
19235;SDS011;9752;54.270;12.470;2023-06-26T20:40:12;13.33;;;11.47;;
19235;SDS011;9752;54.270;12.470;2023-06-26T20:45:14;12.93;;;11.27;;
19235;SDS011;9752;54.270;12.470;2023-06-26T20:50:17;13.00;;;11.73;;
19235;SDS011;9752;54.270;12.470;2023-06-26T20:55:21;14.77;;;11.73;;
19235;SDS011;9752;54.270;12.470;2023-06-26T21:00:24;14.60;;;13.10;;
19235;SDS011;9752;54.270;12.470;2023-06-26T21:05:25;15.73;;;13.23;;
19235;SDS011;9752;54.270;12.470;2023-06-26T21:10:28;15.70;;;14.13;;
19235;SDS011;9752;54.270;12.470;2023-06-26T21:15:30;16.17;;;14.77;;
19235;SDS011;9752;54.270;12.470;2023-06-26T21:20:32;17.33;;;15.50;;
19235;SDS011;9752;54.270;12.470;2023-06-26T21:25:35;16.37;;;14.93;;
19235;SDS011;9752;54.270;12.470;2023-06-26T21:30:36;16.63;;;15.10;;
19235;SDS011;9752;54.270;12.470;2023-06-26T21:35:38;17.37;;;15.10;;
19235;SDS011;9752;54.270;12.470;2023-06-26T21:40:44;15.77;;;14.40;;
19235;SDS011;9752;54.270;12.470;2023-06-26T21:45:45;16.53;;;15.30;;
19235;SDS011;9752;54.270;12.470;2023-06-26T21:50:47;17.50;;;16.00;;
19235;SDS011;9752;54.270;12.470;2023-06-26T21:55:50;17.47;;;16.33;;
19235;SDS011;9752;54.270;12.470;2023-06-26T22:00:52;17.87;;;16.47;;
19235;SDS011;9752;54.270;12.470;2023-06-26T22:05:53;17.27;;;15.87;;
19235;SDS011;9752;54.270;12.470;2023-06-26T22:10:57;18.63;;;17.00;;
19235;SDS011;9752;54.270;12.470;2023-06-26T22:15:58;18.00;;;16.60;;
19235;SDS011;9752;54.270;12.470;2023-06-26T22:21:00;18.63;;;16.97;;
19235;SDS011;9752;54.270;12.470;2023-06-26T22:26:03;18.03;;;16.53;;
19235;SDS011;9752;54.270;12.470;2023-06-26T22:31:05;19.17;;;17.07;;
19235;SDS011;9752;54.270;12.470;2023-06-26T22:36:06;16.60;;;15.33;;
19235;SDS011;9752;54.270;12.470;2023-06-26T22:41:10;17.03;;;15.23;;
19235;SDS011;9752;54.270;12.470;2023-06-26T22:46:11;18.33;;;16.30;;
19235;SDS011;9752;54.270;12.470;2023-06-26T22:51:13;18.73;;;17.50;;
19235;SDS011;9752;54.270;12.470;2023-06-26T22:56:16;19.07;;;17.60;;
19235;SDS011;9752;54.270;12.470;2023-06-26T23:01:18;21.27;;;17.37;;
19235;SDS011;9752;54.270;12.470;2023-06-26T23:06:19;18.20;;;16.90;;
19235;SDS011;9752;54.270;12.470;2023-06-26T23:11:23;18.83;;;16.83;;
19235;SDS011;9752;54.270;12.470;2023-06-26T23:16:24;18.60;;;16.90;;
19235;SDS011;9752;54.270;12.470;2023-06-26T23:21:26;17.43;;;15.87;;
19235;SDS011;9752;54.270;12.470;2023-06-26T23:26:29;18.30;;;16.57;;
19235;SDS011;9752;54.270;12.470;2023-06-26T23:31:31;16.93;;;15.73;;
19235;SDS011;9752;54.270;12.470;2023-06-26T23:36:33;19.93;;;16.00;;
19235;SDS011;9752;54.270;12.470;2023-06-26T23:41:39;16.80;;;15.17;;
19235;SDS011;9752;54.270;12.470;2023-06-26T23:46:40;18.20;;;16.30;;
19235;SDS011;9752;54.270;12.470;2023-06-26T23:51:42;17.47;;;15.63;;
19235;SDS011;9752;54.270;12.470;2023-06-26T23:56:45;17.00;;;15.57;;
